createdAt,value
2023-07-18T00:02:09.268Z,1.00
2023-07-18T00:04:37.727Z,1.00
2023-07-18T00:07:07.106Z,1.00
2023-07-18T00:09:37.164Z,1.00
2023-07-18T00:12:07.176Z,1.00
2023-07-18T00:14:35.804Z,1.00
2023-07-18T00:17:04.151Z,1.00
2023-07-18T00:19:34.900Z,1.00
2023-07-18T00:22:03.354Z,1.00
2023-07-18T00:24:31.986Z,16.00
2023-07-18T00:27:02.434Z,21.90
2023-07-18T00:29:30.976Z,95.90
2023-07-18T00:31:59.171Z,99.90
2023-07-18T00:34:27.456Z,99.90
2023-07-18T00:36:57.205Z,99.90
2023-07-18T00:42:11.341Z,99.90
2023-07-18T00:44:39.585Z,1.00
2023-07-18T00:47:09.929Z,1.00
2023-07-18T00:49:38.352Z,1.00
2023-07-18T00:52:09.023Z,1.00
2023-07-18T00:54:38.236Z,25.10
2023-07-18T00:57:10.263Z,99.90
2023-07-18T00:59:40.245Z,99.90
2023-07-18T01:02:09.260Z,99.90
2023-07-18T01:04:38.923Z,99.90
2023-07-18T01:07:09.351Z,1.00
2023-07-18T01:09:37.352Z,1.00
2023-07-18T01:12:06.211Z,4.20
2023-07-18T01:14:34.408Z,99.90
2023-07-18T01:17:04.230Z,99.90
2023-07-18T01:19:33.207Z,99.90
2023-07-18T01:22:03.857Z,1.00
2023-07-18T01:24:33.273Z,99.90
2023-07-18T01:27:01.111Z,99.90
2023-07-18T01:29:29.096Z,99.90
2023-07-18T01:31:57.465Z,1.00
2023-07-18T01:34:25.871Z,1.00
2023-07-18T01:36:54.012Z,1.00
2023-07-18T01:39:23.741Z,99.90
2023-07-18T01:41:51.884Z,1.00
2023-07-18T01:44:21.047Z,99.90
2023-07-18T01:46:50.975Z,99.90
2023-07-18T01:49:19.067Z,99.90
2023-07-18T01:51:47.298Z,99.90
2023-07-18T01:54:15.287Z,99.90
2023-07-18T01:56:44.618Z,99.90
2023-07-18T01:59:12.726Z,1.00
2023-07-18T02:01:41.716Z,90.50
2023-07-18T02:04:09.977Z,99.90
2023-07-18T02:06:37.851Z,1.00
2023-07-18T02:09:06.575Z,1.00
2023-07-18T02:11:35.264Z,76.70
2023-07-18T02:14:04.929Z,1.00
2023-07-18T02:19:03.116Z,99.90
2023-07-18T02:21:33.933Z,31.50
2023-07-18T02:24:02.026Z,99.90
2023-07-18T02:26:30.821Z,99.90
2023-07-18T02:28:58.972Z,1.00
2023-07-18T02:31:28.397Z,99.90
2023-07-18T02:33:59.036Z,99.90
2023-07-18T02:36:27.176Z,1.00
2023-07-18T02:38:55.349Z,99.90
2023-07-18T02:41:23.536Z,1.00
2023-07-18T02:43:51.784Z,1.00
2023-07-18T02:46:19.813Z,1.00
2023-07-18T02:48:49.300Z,1.00
2023-07-18T02:51:21.759Z,1.00
2023-07-18T02:53:51.528Z,1.00
2023-07-18T02:56:20.289Z,1.00
2023-07-18T02:58:48.918Z,1.00
2023-07-18T03:01:20.139Z,1.00
2023-07-18T03:03:50.341Z,99.90
2023-07-18T03:06:20.066Z,1.00
2023-07-18T03:08:48.354Z,99.90
2023-07-18T03:11:17.380Z,1.00
2023-07-18T03:13:46.008Z,1.00
2023-07-18T03:16:15.293Z,99.90
2023-07-18T03:18:43.979Z,1.00
2023-07-18T03:21:13.563Z,99.90
2023-07-18T03:23:41.846Z,93.00
2023-07-18T03:26:10.192Z,1.00
2023-07-18T03:28:38.256Z,99.90
2023-07-18T03:31:08.260Z,99.90
2023-07-18T03:33:37.794Z,1.00
2023-07-18T03:36:06.677Z,1.00
2023-07-18T03:38:36.701Z,99.90
2023-07-18T03:41:05.230Z,1.00
2023-07-18T03:43:33.796Z,99.90
2023-07-18T03:46:01.747Z,99.90
2023-07-18T03:48:29.879Z,1.00
2023-07-18T03:50:58.922Z,1.00
2023-07-18T03:53:27.593Z,72.30
2023-07-18T03:56:04.053Z,93.10
2023-07-18T03:58:32.313Z,1.00
2023-07-18T04:01:00.280Z,99.90
2023-07-18T04:03:28.547Z,99.90
2023-07-18T04:05:56.924Z,99.90
2023-07-18T04:08:25.492Z,99.90
2023-07-18T04:10:53.369Z,99.90
2023-07-18T04:15:51.253Z,99.90
2023-07-18T04:18:20.191Z,1.00
2023-07-18T04:20:50.271Z,99.90
2023-07-18T04:23:19.567Z,99.90
2023-07-18T04:25:59.101Z,99.90
2023-07-18T04:28:30.452Z,99.90
2023-07-18T04:30:58.695Z,99.90
2023-07-18T04:33:27.104Z,1.00
2023-07-18T04:35:55.410Z,1.00
2023-07-18T04:38:23.585Z,1.00
2023-07-18T04:40:51.993Z,1.00
2023-07-18T04:43:20.462Z,99.90
2023-07-18T04:45:50.485Z,99.90
2023-07-18T04:48:20.601Z,99.90
2023-07-18T04:50:51.552Z,1.00
2023-07-18T04:53:20.051Z,99.90
2023-07-18T04:55:52.339Z,99.90
2023-07-18T04:58:21.167Z,99.90
2023-07-18T05:00:50.719Z,99.90
2023-07-18T05:03:18.832Z,99.90
2023-07-18T05:05:47.164Z,1.00
2023-07-18T05:08:18.481Z,99.90
2023-07-18T05:10:46.843Z,99.90
2023-07-18T05:13:17.111Z,99.90
2023-07-18T05:15:47.719Z,99.90
2023-07-18T05:18:17.933Z,99.90
2023-07-18T05:20:46.114Z,99.90
2023-07-18T05:23:14.314Z,1.00
2023-07-18T05:25:42.509Z,1.00
2023-07-18T05:28:10.686Z,99.90
2023-07-18T05:30:38.720Z,1.00
2023-07-18T05:33:06.968Z,99.90
2023-07-18T05:35:38.356Z,99.90
2023-07-18T05:38:06.685Z,99.90
2023-07-18T05:40:35.935Z,83.70
2023-07-18T05:43:04.239Z,1.00
2023-07-18T05:45:32.589Z,1.00
2023-07-18T05:48:01.385Z,1.00
2023-07-18T05:50:29.636Z,1.00
2023-07-18T05:52:59.278Z,1.00
2023-07-18T05:55:28.834Z,1.00
2023-07-18T05:57:57.558Z,1.00
2023-07-18T06:00:26.863Z,1.00
2023-07-18T06:02:58.359Z,1.00
2023-07-18T06:05:27.374Z,99.90
2023-07-18T06:07:55.274Z,99.90
2023-07-18T06:10:24.789Z,99.90
2023-07-18T06:12:52.792Z,99.90
2023-07-18T06:15:21.639Z,99.90
2023-07-18T06:17:50.316Z,87.80
2023-07-18T06:20:22.326Z,2.60
2023-07-18T06:22:50.791Z,1.00
2023-07-18T06:25:20.007Z,1.00
2023-07-18T06:27:49.658Z,1.00
2023-07-18T06:30:18.197Z,1.00
2023-07-18T06:32:46.511Z,1.00
2023-07-18T06:35:23.835Z,1.00
2023-07-18T06:37:52.598Z,1.00
2023-07-18T06:40:20.912Z,1.00
2023-07-18T06:42:51.461Z,1.00
2023-07-18T06:45:19.945Z,99.90
2023-07-18T06:47:48.385Z,54.80
2023-07-18T06:50:16.534Z,1.00
2023-07-18T06:52:45.154Z,1.00
2023-07-18T06:55:13.787Z,1.00
2023-07-18T06:57:44.640Z,99.90
2023-07-18T07:00:16.096Z,1.00
2023-07-18T07:02:45.504Z,99.90
2023-07-18T07:05:14.329Z,1.00
2023-07-18T07:07:42.970Z,99.90
2023-07-18T07:10:11.246Z,99.90
2023-07-18T07:12:39.663Z,99.90
2023-07-18T07:15:08.805Z,99.90
2023-07-18T07:17:38.840Z,1.00
2023-07-18T07:20:08.414Z,1.00
2023-07-18T07:22:38.646Z,1.00
2023-07-18T07:25:07.912Z,1.00
2023-07-18T07:27:36.013Z,1.00
2023-07-18T07:30:04.065Z,1.00
2023-07-18T07:32:32.688Z,1.00
2023-07-18T07:35:02.144Z,1.00
2023-07-18T07:37:30.478Z,99.90
2023-07-18T07:39:58.648Z,1.00
2023-07-18T07:42:26.636Z,99.90
2023-07-18T07:44:55.160Z,99.90
2023-07-18T07:47:23.351Z,99.90
2023-07-18T07:49:51.605Z,99.90
2023-07-18T07:52:23.636Z,99.90
2023-07-18T07:54:51.904Z,99.90
2023-07-18T07:57:20.154Z,99.90
2023-07-18T07:59:49.223Z,99.90
2023-07-18T08:02:17.519Z,99.90
2023-07-18T08:04:46.751Z,99.90
2023-07-18T08:07:16.141Z,32.10
2023-07-18T08:12:17.444Z,1.00
2023-07-18T08:14:45.882Z,1.00
2023-07-18T08:17:13.855Z,1.00
2023-07-18T08:19:41.981Z,1.00
2023-07-18T08:22:10.757Z,99.90
2023-07-18T08:24:39.102Z,99.90
2023-07-18T08:27:09.247Z,99.90
2023-07-18T08:29:37.368Z,99.90
2023-07-18T08:32:06.344Z,99.90
2023-07-18T08:34:35.996Z,99.90
2023-07-18T08:37:06.648Z,99.90
2023-07-18T08:39:35.040Z,99.90
2023-07-18T08:42:08.713Z,49.10
2023-07-18T08:44:37.676Z,99.90
2023-07-18T08:47:07.984Z,1.00
2023-07-18T08:49:37.685Z,1.00
2023-07-18T08:52:07.691Z,1.00
2023-07-18T08:54:36.618Z,1.00
2023-07-18T08:57:04.969Z,1.00
2023-07-18T08:59:34.648Z,1.00
2023-07-18T09:02:02.826Z,1.00
2023-07-18T09:04:33.440Z,1.00
2023-07-18T09:07:04.015Z,1.00
2023-07-18T09:09:31.978Z,1.00
2023-07-18T09:12:04.771Z,1.00
2023-07-18T09:14:38.331Z,1.00
2023-07-18T09:17:07.189Z,99.90
2023-07-18T09:19:42.961Z,99.90
2023-07-18T09:22:12.915Z,99.90
2023-07-18T09:24:43.680Z,99.90
2023-07-18T09:27:17.686Z,99.90
2023-07-18T09:29:48.567Z,99.90
2023-07-18T09:32:20.114Z,99.90
2023-07-18T09:34:55.075Z,99.90
2023-07-18T09:37:24.491Z,99.90
2023-07-18T09:39:53.682Z,99.90
2023-07-18T09:42:23.963Z,74.50
2023-07-18T09:47:32.629Z,50.20
2023-07-18T09:50:03.535Z,1.00
2023-07-18T09:52:36.950Z,1.00
2023-07-18T09:55:08.153Z,1.00
2023-07-18T09:57:38.634Z,1.00
2023-07-18T10:00:12.953Z,1.00
2023-07-18T10:02:42.449Z,1.00
2023-07-18T10:05:12.198Z,1.00
2023-07-18T10:07:41.731Z,1.00
2023-07-18T10:10:11.960Z,1.00
2023-07-18T10:12:59.099Z,1.00
2023-07-18T10:15:30.031Z,1.00
2023-07-18T10:18:18.761Z,1.00
2023-07-18T10:21:00.403Z,1.00
2023-07-18T10:23:43.320Z,99.90
2023-07-18T10:26:11.569Z,99.90
2023-07-18T10:28:47.313Z,1.00
2023-07-18T10:31:35.912Z,99.90
2023-07-18T10:34:12.184Z,99.90
2023-07-18T10:36:42.155Z,99.90
2023-07-18T10:39:14.006Z,99.90
2023-07-18T10:41:45.498Z,99.90
2023-07-18T10:44:15.840Z,99.90
2023-07-18T10:46:46.958Z,99.90
2023-07-18T10:49:15.108Z,99.90
2023-07-18T10:51:43.607Z,99.90
2023-07-18T10:54:12.935Z,99.90
2023-07-18T10:56:41.044Z,99.90
2023-07-18T10:59:09.102Z,99.90
2023-07-18T11:01:38.389Z,99.90
2023-07-18T11:04:11.206Z,99.90
2023-07-18T11:06:43.713Z,99.90
2023-07-18T11:09:13.648Z,99.90
2023-07-18T11:11:41.893Z,99.90
2023-07-18T11:14:10.425Z,99.90
2023-07-18T11:16:39.085Z,99.90
2023-07-18T11:19:10.750Z,99.90
2023-07-18T11:21:39.714Z,99.90
2023-07-18T11:24:08.771Z,99.90
2023-07-18T11:26:36.988Z,99.90
2023-07-18T11:29:06.752Z,99.90
2023-07-18T11:31:42.800Z,99.90
2023-07-18T11:34:25.096Z,99.90
2023-07-18T11:36:56.491Z,99.90
2023-07-18T11:39:25.728Z,99.90
2023-07-18T11:42:06.904Z,99.90
2023-07-18T11:44:35.110Z,99.90
2023-07-18T11:47:03.236Z,99.90
2023-07-18T11:49:37.305Z,99.90
2023-07-18T11:52:07.250Z,99.90
2023-07-18T11:54:36.542Z,99.90
2023-07-18T11:57:05.887Z,99.90
2023-07-18T11:59:34.359Z,99.90
2023-07-18T12:02:04.283Z,99.90
2023-07-18T12:04:32.679Z,99.90
2023-07-18T12:07:02.210Z,99.90
2023-07-18T12:09:30.372Z,99.90
2023-07-18T12:11:58.395Z,99.90
2023-07-18T12:14:26.572Z,99.90
2023-07-18T12:19:24.513Z,99.90
2023-07-18T12:21:52.671Z,99.90
2023-07-18T12:24:22.423Z,99.90
2023-07-18T12:26:50.374Z,99.90
2023-07-18T12:29:19.795Z,99.90
2023-07-18T12:31:52.912Z,99.90
2023-07-18T12:34:21.913Z,99.90
2023-07-18T12:36:50.584Z,99.90
2023-07-18T12:39:19.477Z,99.90
2023-07-18T12:41:49.062Z,99.90
2023-07-18T12:44:19.737Z,99.90
2023-07-18T12:46:47.936Z,99.90
2023-07-18T12:52:05.301Z,99.90
2023-07-18T12:54:33.980Z,85.20
2023-07-18T12:57:03.741Z,88.20
2023-07-18T12:59:32.411Z,86.30
2023-07-18T13:02:01.134Z,95.00
2023-07-18T13:04:29.954Z,99.90
2023-07-18T13:06:58.341Z,94.40
2023-07-18T13:09:26.606Z,99.90
2023-07-18T13:12:02.314Z,99.90
2023-07-18T13:14:31.605Z,99.90
2023-07-18T13:16:59.752Z,99.90
2023-07-18T13:19:28.192Z,99.90
2023-07-18T13:22:01.260Z,99.90
2023-07-18T13:24:29.714Z,99.90
2023-07-18T13:26:58.084Z,99.90
2023-07-18T13:29:26.179Z,91.60
2023-07-18T13:31:56.064Z,66.20
2023-07-18T13:34:24.193Z,99.20
2023-07-18T13:36:52.389Z,99.90
2023-07-18T13:39:20.408Z,99.90
2023-07-18T13:41:49.140Z,59.40
2023-07-18T13:44:17.572Z,56.10
2023-07-18T13:46:46.114Z,42.50
2023-07-18T13:49:15.881Z,12.50
2023-07-18T13:51:45.660Z,1.00
2023-07-18T13:54:13.971Z,6.90
2023-07-18T13:56:42.254Z,1.00
2023-07-18T13:59:10.666Z,1.00
2023-07-18T14:01:41.458Z,1.00
2023-07-18T14:04:12.718Z,1.00
2023-07-18T14:06:42.728Z,1.00
2023-07-18T14:09:11.014Z,1.00
2023-07-18T14:11:39.077Z,1.00
2023-07-18T14:14:07.424Z,1.00
2023-07-18T14:16:36.216Z,1.00
2023-07-18T14:19:04.553Z,1.00
2023-07-18T14:21:33.034Z,1.00
2023-07-18T14:24:06.230Z,1.00
2023-07-18T14:26:34.590Z,1.00
2023-07-18T14:29:02.657Z,1.00
2023-07-18T14:31:31.009Z,1.00
2023-07-18T14:34:06.797Z,1.00
2023-07-18T14:36:37.229Z,1.00
2023-07-18T14:39:07.403Z,1.00
2023-07-18T14:41:35.800Z,1.00
2023-07-18T14:44:04.021Z,1.00
2023-07-18T14:46:35.218Z,1.00
2023-07-18T14:49:04.010Z,1.00
2023-07-18T14:51:33.629Z,1.00
2023-07-18T14:54:01.758Z,1.00
2023-07-18T14:56:32.829Z,1.00
2023-07-18T14:59:00.758Z,1.00
2023-07-18T15:01:30.014Z,1.00
2023-07-18T15:03:58.426Z,1.00
2023-07-18T15:06:26.942Z,1.00
2023-07-18T15:08:56.253Z,1.00
2023-07-18T15:11:24.911Z,1.00
2023-07-18T15:13:54.415Z,1.00
2023-07-18T15:16:23.450Z,1.00
2023-07-18T15:18:53.349Z,1.00
2023-07-18T15:21:21.376Z,1.00
2023-07-18T15:23:49.379Z,1.00
2023-07-18T15:26:17.812Z,1.00
2023-07-18T15:28:46.370Z,1.00
2023-07-18T15:31:16.569Z,1.00
2023-07-18T15:33:46.307Z,1.00
2023-07-18T15:36:14.589Z,1.00
2023-07-18T15:38:46.374Z,1.00
2023-07-18T15:41:15.145Z,1.00
2023-07-18T15:43:43.935Z,1.00
2023-07-18T15:46:12.853Z,1.00
2023-07-18T15:48:45.292Z,1.00
2023-07-18T15:51:13.642Z,1.00
2023-07-18T15:53:41.753Z,1.00
2023-07-18T15:56:15.673Z,1.00
2023-07-18T15:58:43.987Z,1.00
2023-07-18T16:01:12.255Z,1.00
2023-07-18T16:03:42.218Z,1.00
2023-07-18T16:06:10.472Z,1.00
2023-07-18T16:08:38.757Z,1.00
2023-07-18T16:11:07.081Z,1.00
2023-07-18T16:13:36.387Z,1.00
2023-07-18T16:16:05.367Z,1.00
2023-07-18T16:18:33.506Z,1.00
2023-07-18T16:21:03.178Z,1.00
2023-07-18T16:23:31.168Z,1.00
2023-07-18T16:25:59.103Z,1.00
2023-07-18T16:28:27.423Z,1.00
2023-07-18T16:30:57.561Z,1.00
2023-07-18T16:33:25.760Z,1.00
2023-07-18T16:35:53.964Z,1.00
2023-07-18T16:38:24.436Z,1.00
2023-07-18T16:40:52.433Z,1.00
2023-07-18T16:43:21.223Z,1.00
2023-07-18T16:45:51.802Z,1.00
2023-07-18T16:48:20.311Z,1.00
2023-07-18T16:50:49.311Z,1.00
2023-07-18T16:53:17.392Z,1.00
2023-07-18T16:55:46.867Z,1.00
2023-07-18T16:58:16.338Z,1.00
2023-07-18T17:00:45.078Z,1.00
2023-07-18T17:03:13.277Z,1.00
2023-07-18T17:05:43.969Z,1.00
2023-07-18T17:08:12.171Z,1.00
2023-07-18T17:10:43.792Z,1.00
2023-07-18T17:13:13.385Z,1.00
2023-07-18T17:15:41.688Z,1.00
2023-07-18T17:18:10.531Z,1.00
2023-07-18T17:20:39.221Z,1.00
2023-07-18T17:23:07.851Z,1.00
2023-07-18T17:25:36.382Z,1.00
2023-07-18T17:28:04.532Z,1.00
2023-07-18T17:30:36.843Z,1.00
2023-07-18T17:33:05.662Z,99.90
2023-07-18T17:35:34.912Z,99.90
2023-07-18T17:38:04.121Z,99.90
2023-07-18T17:40:32.174Z,99.90
2023-07-18T17:43:03.222Z,99.90
2023-07-18T17:45:35.202Z,99.90
2023-07-18T17:48:03.965Z,99.90
2023-07-18T17:50:32.096Z,99.90
2023-07-18T17:53:00.089Z,99.90
2023-07-18T17:55:28.788Z,99.90
2023-07-18T17:57:58.094Z,99.90
2023-07-18T18:00:26.595Z,99.90
2023-07-18T18:02:56.818Z,99.90
2023-07-18T18:05:36.458Z,99.90
2023-07-18T18:08:06.261Z,99.90
2023-07-18T18:10:34.787Z,99.90
2023-07-18T18:13:03.069Z,99.90
2023-07-18T18:15:31.642Z,99.90
2023-07-18T18:18:02.253Z,99.90
2023-07-18T18:20:30.777Z,99.90
2023-07-18T18:22:59.129Z,99.90
2023-07-18T18:25:28.162Z,99.90
2023-07-18T18:27:56.762Z,99.90
2023-07-18T18:30:26.005Z,99.90
2023-07-18T18:32:54.710Z,99.90
2023-07-18T18:35:24.194Z,99.90
2023-07-18T18:37:52.236Z,99.90
2023-07-18T18:40:20.681Z,99.90
2023-07-18T18:42:51.007Z,1.00
2023-07-18T18:45:19.445Z,1.00
2023-07-18T18:47:49.876Z,1.00
2023-07-18T18:50:19.959Z,1.00
2023-07-18T18:52:50.225Z,1.00
2023-07-18T18:55:20.697Z,1.00
2023-07-18T18:57:49.748Z,1.00
2023-07-18T19:00:19.156Z,1.00
2023-07-18T19:02:47.465Z,1.00
2023-07-18T19:05:17.898Z,1.00
2023-07-18T19:07:46.607Z,1.00
2023-07-18T19:10:16.567Z,1.00
2023-07-18T19:12:47.094Z,1.00
2023-07-18T19:15:15.358Z,1.00
2023-07-18T19:17:43.444Z,1.00
2023-07-18T19:20:12.738Z,1.00
2023-07-18T19:22:41.118Z,1.00
2023-07-18T19:25:09.905Z,1.00
2023-07-18T19:27:39.980Z,71.60
2023-07-18T19:30:11.262Z,99.90
2023-07-18T19:32:42.014Z,99.90
2023-07-18T19:35:10.351Z,99.90
2023-07-18T19:37:38.550Z,99.90
2023-07-18T19:40:08.034Z,99.90
2023-07-18T19:42:35.942Z,1.00
2023-07-18T19:45:05.685Z,1.00
2023-07-18T19:47:34.213Z,1.00
2023-07-18T19:50:03.452Z,1.00
2023-07-18T19:52:31.632Z,1.00
2023-07-18T19:55:00.129Z,13.30
2023-07-18T19:57:28.460Z,92.20
2023-07-18T19:59:56.738Z,99.90
2023-07-18T20:02:26.504Z,99.90
2023-07-18T20:04:54.545Z,1.00
2023-07-18T20:07:22.536Z,1.00
2023-07-18T20:09:50.956Z,1.00
2023-07-18T20:12:20.309Z,12.70
2023-07-18T20:14:48.552Z,99.90
2023-07-18T20:17:16.853Z,99.90
2023-07-18T20:19:46.536Z,99.90
2023-07-18T20:22:15.814Z,99.90
2023-07-18T20:24:44.143Z,99.90
2023-07-18T20:27:12.116Z,99.90
2023-07-18T20:29:40.688Z,1.00
2023-07-18T20:32:08.901Z,24.20
2023-07-18T20:34:37.636Z,33.80
2023-07-18T20:37:07.987Z,99.90
2023-07-18T20:39:36.332Z,19.50
2023-07-18T20:42:06.887Z,99.90
2023-07-18T20:44:35.261Z,99.90
2023-07-18T20:47:05.046Z,1.00
2023-07-18T20:49:33.120Z,1.00
2023-07-18T20:52:01.380Z,1.00
2023-07-18T20:54:33.668Z,1.00
2023-07-18T20:57:04.323Z,1.00
2023-07-18T20:59:34.019Z,1.00
2023-07-18T21:02:02.385Z,1.00
2023-07-18T21:04:30.664Z,1.00
2023-07-18T21:06:58.902Z,99.90
2023-07-18T21:09:27.006Z,3.40
2023-07-18T21:11:56.341Z,99.90
2023-07-18T21:14:25.330Z,99.90
2023-07-18T21:16:53.863Z,1.00
2023-07-18T21:19:22.031Z,55.30
2023-07-18T21:21:50.489Z,12.20
2023-07-18T21:24:19.463Z,99.90
2023-07-18T21:26:47.865Z,1.00
2023-07-18T21:29:20.143Z,99.90
2023-07-18T21:31:48.541Z,99.90
2023-07-18T21:34:16.612Z,99.90
2023-07-18T21:36:44.633Z,1.00
2023-07-18T21:39:12.619Z,1.00
2023-07-18T21:41:40.824Z,99.90
2023-07-18T21:44:09.271Z,1.00
2023-07-18T21:46:39.046Z,1.00
2023-07-18T21:49:07.558Z,1.00
2023-07-18T21:51:35.510Z,1.00
2023-07-18T21:54:03.621Z,1.00
2023-07-18T21:59:01.243Z,1.00
2023-07-18T22:01:34.838Z,1.00
2023-07-18T22:04:05.151Z,1.00
2023-07-18T22:06:33.588Z,1.00
2023-07-18T22:09:03.990Z,1.00
2023-07-18T22:14:03.474Z,1.00
2023-07-18T22:16:32.037Z,1.00
2023-07-18T22:19:02.531Z,75.30
2023-07-18T22:21:32.529Z,99.90
2023-07-18T22:24:02.235Z,99.90
2023-07-18T22:26:30.727Z,99.90
2023-07-18T22:28:58.797Z,99.90
2023-07-18T22:31:27.033Z,99.90
2023-07-18T22:36:23.996Z,14.50
2023-07-18T22:38:53.906Z,55.20
2023-07-18T22:41:22.278Z,99.90
2023-07-18T22:43:50.941Z,99.90
2023-07-18T22:46:19.174Z,99.90
2023-07-18T22:48:47.573Z,99.90
2023-07-18T22:51:15.949Z,99.90
2023-07-18T22:53:44.195Z,99.90
2023-07-18T22:56:15.467Z,99.90
2023-07-18T22:58:44.073Z,99.90
2023-07-18T23:01:12.380Z,99.90
2023-07-18T23:03:40.811Z,99.90
2023-07-18T23:06:09.215Z,99.90
2023-07-18T23:08:37.717Z,99.90
2023-07-18T23:11:06.113Z,99.90
2023-07-18T23:13:35.470Z,1.00
2023-07-18T23:16:03.421Z,1.00
2023-07-18T23:18:31.531Z,1.00
2023-07-18T23:21:00.029Z,1.00
2023-07-18T23:23:28.269Z,1.00
2023-07-18T23:25:56.490Z,1.00
2023-07-18T23:28:26.149Z,1.00
2023-07-18T23:30:56.075Z,1.00
2023-07-18T23:33:24.214Z,1.00
2023-07-18T23:35:52.483Z,1.00
2023-07-18T23:38:21.031Z,1.00
2023-07-18T23:40:49.554Z,1.00
2023-07-18T23:43:17.832Z,1.00
2023-07-18T23:45:46.000Z,1.00
2023-07-18T23:48:15.973Z,1.00
2023-07-18T23:50:44.234Z,1.00
2023-07-18T23:53:12.149Z,1.00
2023-07-18T23:55:43.976Z,1.00
2023-07-18T23:58:12.413Z,1.00
